createdAt,value
2023-05-10T05:48:55.118Z,17.83
2023-05-10T05:51:23.101Z,18.24
2023-05-10T05:53:51.101Z,18.44
2023-05-10T05:56:25.331Z,18.31
2023-05-10T05:58:53.630Z,18.10
2023-05-10T06:01:22.194Z,18.36
2023-05-10T06:03:53.190Z,18.40
2023-05-10T06:06:21.756Z,18.47
2023-05-10T06:08:49.683Z,18.61
2023-05-10T06:11:17.654Z,18.52
2023-05-10T06:13:45.732Z,18.90
2023-05-10T06:16:14.463Z,18.99
2023-05-10T06:18:42.468Z,18.73
2023-05-10T06:21:10.457Z,18.70
2023-05-10T06:23:38.482Z,19.04
2023-05-10T06:26:06.455Z,18.83
2023-05-10T06:28:34.786Z,18.89
2023-05-10T06:31:03.024Z,18.85
2023-05-10T06:33:31.168Z,18.39
2023-05-10T06:35:59.148Z,18.46
2023-05-10T06:38:27.532Z,18.43
2023-05-10T06:40:55.513Z,18.47
2023-05-10T06:43:23.471Z,18.94
2023-05-10T06:45:51.423Z,19.21
2023-05-10T06:48:19.427Z,19.05
2023-05-10T06:50:47.401Z,18.64
2023-05-10T06:53:15.414Z,18.69
2023-05-10T06:55:43.334Z,18.99
2023-05-10T06:58:11.556Z,18.96
2023-05-10T07:00:41.710Z,19.07
2023-05-10T07:03:10.904Z,19.23
2023-05-10T07:05:39.014Z,19.27
2023-05-10T07:08:07.094Z,19.06
2023-05-10T07:10:35.172Z,18.89
2023-05-10T07:13:03.392Z,18.96
2023-05-10T07:15:31.603Z,19.00
2023-05-10T07:17:59.722Z,18.92
2023-05-10T07:20:27.976Z,18.91
2023-05-10T07:22:56.089Z,18.77
2023-05-10T07:25:24.078Z,19.06
2023-05-10T07:27:52.122Z,19.17
2023-05-10T07:30:20.771Z,19.34
2023-05-10T07:32:48.919Z,19.16
2023-05-10T07:35:17.295Z,19.13
2023-05-10T07:37:46.748Z,19.15
2023-05-10T07:40:14.774Z,19.20
2023-05-10T07:42:42.698Z,19.25
2023-05-10T07:45:10.718Z,19.12
2023-05-10T07:47:38.743Z,19.18
2023-05-10T07:50:07.933Z,19.59
2023-05-10T07:52:35.921Z,19.66
2023-05-10T07:55:04.050Z,19.99
2023-05-10T07:57:32.133Z,20.16
2023-05-10T08:00:00.206Z,20.11
2023-05-10T08:02:28.320Z,20.15
2023-05-10T08:04:57.035Z,20.12
2023-05-10T08:07:25.643Z,19.95
2023-05-10T08:09:53.580Z,20.03
2023-05-10T08:12:21.764Z,20.19
2023-05-10T08:14:49.759Z,20.00
2023-05-10T08:17:19.781Z,20.11
2023-05-10T08:19:48.423Z,20.23
2023-05-10T08:22:16.793Z,20.53
2023-05-10T08:24:44.721Z,20.52
2023-05-10T08:27:12.645Z,20.60
2023-05-10T08:29:49.615Z,20.57
2023-05-10T08:32:18.892Z,20.67
2023-05-10T08:34:47.016Z,20.35
2023-05-10T08:37:15.041Z,20.28
2023-05-10T08:39:43.147Z,20.51
2023-05-10T08:42:11.482Z,20.75
2023-05-10T08:44:39.728Z,20.98
2023-05-10T08:47:08.471Z,21.02
2023-05-10T08:49:36.615Z,21.20
2023-05-10T08:52:05.421Z,20.91
2023-05-10T08:54:34.382Z,20.71
2023-05-10T08:57:02.534Z,20.79
2023-05-10T08:59:30.512Z,20.79
2023-05-10T09:02:01.684Z,20.83
2023-05-10T09:04:29.762Z,20.83
2023-05-10T09:06:58.059Z,20.88
2023-05-10T09:09:26.220Z,20.88
2023-05-10T09:11:54.551Z,21.12
2023-05-10T09:14:22.614Z,21.12
2023-05-10T09:16:50.748Z,21.09
2023-05-10T09:19:18.745Z,21.29
2023-05-10T09:21:46.819Z,21.41
2023-05-10T09:24:14.801Z,21.39
2023-05-10T09:26:52.566Z,21.30
2023-05-10T09:29:20.621Z,21.08
2023-05-10T09:31:52.305Z,21.29
2023-05-10T09:34:22.278Z,21.23
2023-05-10T09:37:06.980Z,21.15
2023-05-10T09:39:36.037Z,21.50
2023-05-10T09:42:06.380Z,21.61
2023-05-10T09:44:34.703Z,21.41
2023-05-10T09:47:03.130Z,21.84
2023-05-10T09:49:31.504Z,21.66
2023-05-10T09:52:04.794Z,21.68
2023-05-10T09:54:33.652Z,21.63
2023-05-10T09:57:02.084Z,21.78
2023-05-10T09:59:30.317Z,21.84
2023-05-10T10:01:59.310Z,22.10
2023-05-10T10:04:27.732Z,22.35
2023-05-10T10:07:05.619Z,22.21
2023-05-10T10:09:34.727Z,21.91
2023-05-10T10:12:03.202Z,22.01
2023-05-10T10:14:31.289Z,21.94
2023-05-10T10:17:08.341Z,21.91
2023-05-10T10:19:37.362Z,21.79
2023-05-10T10:22:06.996Z,21.91
2023-05-10T10:24:35.169Z,21.78
2023-05-10T10:27:29.980Z,21.88
2023-05-10T10:30:27.566Z,21.97
2023-05-10T10:33:16.491Z,21.99
2023-05-10T10:35:48.718Z,21.85
2023-05-10T10:38:17.614Z,21.71
2023-05-10T10:40:45.652Z,21.77
2023-05-10T10:43:43.066Z,21.74
2023-05-10T10:46:15.335Z,21.82
2023-05-10T10:48:52.682Z,22.11
2023-05-10T10:51:21.128Z,22.42
2023-05-10T10:53:49.181Z,22.15
2023-05-10T10:56:17.129Z,21.94
2023-05-10T10:58:52.295Z,21.64
2023-05-10T11:01:20.711Z,21.80
2023-05-10T11:04:01.217Z,21.77
2023-05-10T11:06:36.214Z,21.48
2023-05-10T11:09:12.544Z,21.40
2023-05-10T11:11:51.109Z,21.68
2023-05-10T11:14:21.241Z,21.46
2023-05-10T11:16:49.438Z,21.52
2023-05-10T11:19:18.342Z,21.49
2023-05-10T11:21:50.181Z,21.26
2023-05-10T11:24:20.274Z,21.30
2023-05-10T11:26:50.559Z,21.34
2023-05-10T11:29:18.720Z,21.17
2023-05-10T11:31:48.054Z,21.40
2023-05-10T11:34:31.375Z,21.59
2023-05-10T11:37:00.870Z,21.72
2023-05-10T11:39:32.779Z,21.77
2023-05-10T11:42:01.237Z,22.07
2023-05-10T11:44:33.094Z,22.01
2023-05-10T11:47:04.586Z,21.97
2023-05-10T11:49:32.569Z,21.80
2023-05-10T11:52:08.412Z,21.64
2023-05-10T11:54:36.603Z,21.60
2023-05-10T11:57:07.812Z,21.46
2023-05-10T11:59:35.807Z,21.46
2023-05-10T12:02:04.574Z,21.59
2023-05-10T12:04:32.671Z,21.46
2023-05-10T12:07:00.679Z,21.52
2023-05-10T12:09:42.710Z,21.51
2023-05-10T12:12:16.724Z,21.63
2023-05-10T12:14:44.857Z,21.65
2023-05-10T12:17:14.139Z,21.69
2023-05-10T12:19:42.167Z,21.80
2023-05-10T12:22:10.163Z,21.67
2023-05-10T12:24:39.335Z,21.60
2023-05-10T12:29:58.539Z,22.26
2023-05-10T12:32:40.579Z,22.08
2023-05-10T12:35:09.296Z,21.97
2023-05-10T12:37:40.047Z,21.92
2023-05-10T12:40:09.266Z,21.87
2023-05-10T12:42:37.658Z,21.83
2023-05-10T12:45:06.614Z,21.91
2023-05-10T12:47:34.495Z,22.00
2023-05-10T12:50:03.707Z,21.91
2023-05-10T12:52:33.117Z,21.85
2023-05-10T12:55:01.475Z,21.81
2023-05-10T12:57:29.709Z,21.81
2023-05-10T12:59:57.659Z,22.09
2023-05-10T13:02:25.729Z,22.14
2023-05-10T13:04:53.994Z,22.03
2023-05-10T13:07:22.086Z,21.78
2023-05-10T13:09:49.989Z,21.66
2023-05-10T13:12:17.890Z,21.60
2023-05-10T13:14:46.151Z,21.37
2023-05-10T13:17:14.197Z,21.41
2023-05-10T13:19:42.275Z,21.60
2023-05-10T13:22:10.235Z,21.75
2023-05-10T13:24:38.216Z,21.77
2023-05-10T13:27:06.350Z,21.98
2023-05-10T13:29:34.248Z,21.88
2023-05-10T13:32:02.293Z,21.88
2023-05-10T13:34:30.678Z,21.87
2023-05-10T13:36:58.785Z,21.86
2023-05-10T13:39:26.866Z,22.04
2023-05-10T13:41:55.758Z,21.84
2023-05-10T13:44:24.595Z,21.77
2023-05-10T13:46:52.567Z,21.66
2023-05-10T13:49:20.560Z,21.75
2023-05-10T13:51:48.526Z,21.83
2023-05-10T13:54:18.731Z,22.06
2023-05-10T13:56:48.427Z,22.09
2023-05-10T13:59:16.609Z,21.87
2023-05-10T14:01:44.699Z,21.46
2023-05-10T14:04:12.723Z,21.61
2023-05-10T14:06:40.852Z,21.74
2023-05-10T14:09:08.891Z,21.59
2023-05-10T14:11:36.923Z,21.45
2023-05-10T14:14:04.861Z,21.60
2023-05-10T14:16:32.821Z,21.80
2023-05-10T14:19:00.863Z,22.00
2023-05-10T14:21:30.858Z,21.71
2023-05-10T14:23:58.894Z,21.68
2023-05-10T14:26:27.400Z,21.78
2023-05-10T14:28:55.422Z,21.96
2023-05-10T14:31:25.726Z,21.91
2023-05-10T14:33:54.306Z,21.75
2023-05-10T14:36:22.263Z,21.73
2023-05-10T14:38:50.296Z,21.70
2023-05-10T14:41:18.729Z,21.65
2023-05-10T14:43:47.093Z,21.64
2023-05-10T14:46:15.126Z,21.50
2023-05-10T14:48:43.205Z,21.60
2023-05-10T14:51:11.404Z,21.38
2023-05-10T14:53:39.445Z,21.49
2023-05-10T14:56:08.361Z,21.85
2023-05-10T14:58:36.850Z,21.81
2023-05-10T15:01:05.188Z,21.75
2023-05-10T15:03:33.932Z,21.64
2023-05-10T15:06:02.416Z,21.56
2023-05-10T15:08:30.750Z,21.32
2023-05-10T15:10:59.773Z,21.38
2023-05-10T15:13:27.795Z,21.38
2023-05-10T15:15:55.875Z,21.33
2023-05-10T15:18:26.702Z,21.58
2023-05-10T15:20:56.327Z,21.72
2023-05-10T15:23:24.412Z,21.58
2023-05-10T15:25:56.873Z,21.61
2023-05-10T15:28:25.384Z,21.51
2023-05-10T15:30:53.488Z,21.52
2023-05-10T15:33:21.732Z,21.77
2023-05-10T15:35:49.756Z,21.80
2023-05-10T15:38:17.732Z,21.78
2023-05-10T15:40:45.675Z,21.72
2023-05-10T15:43:13.735Z,21.54
2023-05-10T15:45:41.755Z,21.53
2023-05-10T15:48:09.743Z,21.51
2023-05-10T15:50:37.802Z,21.56
2023-05-10T15:53:05.821Z,21.40
2023-05-10T15:55:35.170Z,21.30
2023-05-10T15:58:03.180Z,21.31
2023-05-10T16:00:31.409Z,21.33
2023-05-10T16:03:03.531Z,21.35
2023-05-10T16:05:34.323Z,21.13
2023-05-10T16:08:02.512Z,21.13
2023-05-10T16:10:33.713Z,21.05
2023-05-10T16:13:03.892Z,20.87
2023-05-10T16:15:31.861Z,20.90
2023-05-10T16:17:59.966Z,20.80
2023-05-10T16:20:28.364Z,20.85
2023-05-10T16:22:56.337Z,20.93
2023-05-10T16:25:24.281Z,20.85
2023-05-10T16:27:52.419Z,20.67
2023-05-10T16:30:21.759Z,20.60
2023-05-10T16:32:51.981Z,20.49
2023-05-10T16:35:20.938Z,20.36
2023-05-10T16:37:48.942Z,20.32
2023-05-10T16:40:17.412Z,20.36
2023-05-10T16:42:45.592Z,20.51
2023-05-10T16:45:13.591Z,20.49
2023-05-10T16:47:41.773Z,20.36
2023-05-10T16:50:10.002Z,20.34
2023-05-10T16:52:37.954Z,20.24
2023-05-10T16:55:06.652Z,19.82
2023-05-10T16:57:35.350Z,19.52
2023-05-10T17:00:04.997Z,19.21
2023-05-10T17:02:33.228Z,19.01
2023-05-10T17:05:03.437Z,18.90
2023-05-10T17:07:31.604Z,18.72
2023-05-10T17:09:59.799Z,18.58
2023-05-10T17:12:28.146Z,18.51
2023-05-10T17:14:58.724Z,18.38
2023-05-10T17:17:28.057Z,18.30
2023-05-10T17:19:56.219Z,18.21
2023-05-10T17:22:24.995Z,18.12
2023-05-10T17:24:53.069Z,18.06
2023-05-10T17:27:21.198Z,17.99
2023-05-10T17:29:49.170Z,17.95
2023-05-10T17:32:17.127Z,17.86
2023-05-10T17:34:45.669Z,17.77
2023-05-10T17:37:13.950Z,17.70
2023-05-10T17:39:42.260Z,17.62
2023-05-10T17:42:10.828Z,17.54
2023-05-10T17:44:39.116Z,17.47
2023-05-10T17:47:07.292Z,17.40
2023-05-10T17:49:35.426Z,17.32
2023-05-10T17:52:04.839Z,17.23
2023-05-10T17:54:34.718Z,17.14
2023-05-10T17:57:03.901Z,17.07
2023-05-10T17:59:32.258Z,17.03
2023-05-10T18:02:01.735Z,16.96
2023-05-10T18:04:29.772Z,16.88
2023-05-10T18:07:01.501Z,16.77
2023-05-10T18:09:29.877Z,16.65
2023-05-10T18:11:57.916Z,16.54
2023-05-10T18:14:39.776Z,16.49
2023-05-10T18:17:10.264Z,16.39
2023-05-10T18:19:38.571Z,16.30
2023-05-10T18:22:09.853Z,16.19
2023-05-10T18:24:40.061Z,16.09
2023-05-10T18:27:09.050Z,16.00
2023-05-10T18:29:37.827Z,15.90
2023-05-10T18:32:06.608Z,15.82
2023-05-10T18:34:34.951Z,15.77
2023-05-10T18:37:07.928Z,15.74
2023-05-10T18:39:39.132Z,15.71
2023-05-10T18:42:07.574Z,15.64
2023-05-10T18:44:35.687Z,15.52
2023-05-10T18:47:03.687Z,15.39
2023-05-10T18:49:32.314Z,15.27
2023-05-10T18:52:00.598Z,15.20
2023-05-10T18:54:29.166Z,15.11
2023-05-10T18:56:58.820Z,15.03
2023-05-10T18:59:28.102Z,14.97
2023-05-10T19:01:57.495Z,14.92
2023-05-10T19:04:26.190Z,14.85
2023-05-10T19:06:56.091Z,14.81
2023-05-10T19:09:24.323Z,14.72
2023-05-10T19:11:52.370Z,14.64
2023-05-10T19:14:20.825Z,14.57
2023-05-10T19:16:48.762Z,14.45
2023-05-10T19:19:17.987Z,14.32
2023-05-10T19:21:46.320Z,14.18
2023-05-10T19:24:14.822Z,14.05
2023-05-10T19:26:43.132Z,13.92
2023-05-10T19:29:13.512Z,13.79
2023-05-10T19:31:41.714Z,13.72
2023-05-10T19:34:09.667Z,13.66
2023-05-10T19:36:37.744Z,13.65
2023-05-10T19:39:05.918Z,13.61
2023-05-10T19:41:34.066Z,13.54
2023-05-10T19:44:02.172Z,13.48
2023-05-10T19:46:31.551Z,13.54
2023-05-10T19:48:59.755Z,13.50
2023-05-10T19:51:27.660Z,13.50
2023-05-10T19:53:56.026Z,13.53
2023-05-10T19:56:23.976Z,13.55
2023-05-10T19:58:52.043Z,13.55
2023-05-10T20:01:20.146Z,13.54
2023-05-10T20:03:48.285Z,13.55
2023-05-10T20:06:16.370Z,13.55
2023-05-10T20:08:44.514Z,13.57
2023-05-10T20:11:12.551Z,13.52
2023-05-10T20:13:40.475Z,13.49
2023-05-10T20:16:09.700Z,13.50
2023-05-10T20:18:38.319Z,13.47
2023-05-10T20:21:06.625Z,13.42
2023-05-10T20:23:34.715Z,13.38
2023-05-10T20:26:02.857Z,13.35
2023-05-10T20:28:31.118Z,13.28
2023-05-10T20:31:00.626Z,13.26
2023-05-10T20:33:29.157Z,13.28
2023-05-10T20:35:57.559Z,13.26
2023-05-10T20:38:25.608Z,13.24
2023-05-10T20:40:53.596Z,13.22
2023-05-10T20:43:21.859Z,13.17
2023-05-10T20:45:50.149Z,13.16
2023-05-10T20:48:19.742Z,13.17
2023-05-10T20:50:47.910Z,13.14
2023-05-10T20:53:16.018Z,13.09
2023-05-10T20:55:44.623Z,13.04
2023-05-10T20:58:12.697Z,12.93
2023-05-10T21:00:40.715Z,12.86
2023-05-10T21:03:09.035Z,12.84
2023-05-10T21:05:37.276Z,12.83
2023-05-10T21:08:05.960Z,12.82
2023-05-10T21:10:34.093Z,12.81
2023-05-10T21:13:02.096Z,12.83
2023-05-10T21:15:30.568Z,12.83
2023-05-10T21:17:58.563Z,12.84
2023-05-10T21:20:26.858Z,12.86
2023-05-10T21:22:54.881Z,12.84
2023-05-10T21:25:23.418Z,12.82
2023-05-10T21:27:51.688Z,12.82
2023-05-10T21:30:20.287Z,12.79
2023-05-10T21:32:48.436Z,12.73
2023-05-10T21:35:30.808Z,12.65
2023-05-10T21:37:58.999Z,12.64
2023-05-10T21:40:26.970Z,12.65
2023-05-10T21:42:55.151Z,12.65
2023-05-10T21:45:23.307Z,12.60
2023-05-10T21:47:51.344Z,12.55
2023-05-10T21:50:19.512Z,12.49
2023-05-10T21:52:47.846Z,12.42
2023-05-10T21:55:15.821Z,12.33
2023-05-10T21:57:44.920Z,12.29
2023-05-10T22:00:13.819Z,12.27
2023-05-10T22:02:41.897Z,12.25
2023-05-10T22:05:10.081Z,12.21
2023-05-10T22:07:38.065Z,12.15
2023-05-10T22:10:08.470Z,12.11
2023-05-10T22:12:36.539Z,12.12
2023-05-10T22:17:38.352Z,12.07
2023-05-10T22:20:09.555Z,12.05
2023-05-10T22:22:37.671Z,11.98
2023-05-10T22:25:07.562Z,11.93
2023-05-10T22:27:35.681Z,11.92
2023-05-10T22:30:04.203Z,11.89
2023-05-10T22:32:37.142Z,11.86
2023-05-10T22:35:07.282Z,11.86
2023-05-10T22:37:35.270Z,11.86
2023-05-10T22:40:14.199Z,11.83
2023-05-10T22:42:42.260Z,11.86
2023-05-10T22:45:10.694Z,11.85
2023-05-10T22:47:38.809Z,11.82
2023-05-10T22:50:07.345Z,11.77
2023-05-10T22:52:35.650Z,11.68
2023-05-10T22:55:03.725Z,11.60
2023-05-10T22:57:31.649Z,11.58
2023-05-10T22:59:59.759Z,11.50
2023-05-10T23:02:27.961Z,11.48
2023-05-10T23:05:02.551Z,11.45
2023-05-10T23:07:30.732Z,11.39
2023-05-10T23:09:58.792Z,11.37
2023-05-10T23:12:26.789Z,11.32
2023-05-10T23:14:54.976Z,11.29
2023-05-10T23:17:22.932Z,11.24
2023-05-10T23:19:51.396Z,11.19
2023-05-10T23:22:21.047Z,11.17
2023-05-10T23:24:48.968Z,11.16
2023-05-10T23:27:16.973Z,11.10
2023-05-10T23:29:45.128Z,11.04
2023-05-10T23:32:13.187Z,10.99
2023-05-10T23:34:41.316Z,10.95
2023-05-10T23:37:09.318Z,10.91
2023-05-10T23:39:37.401Z,10.87
2023-05-10T23:42:05.745Z,10.84
2023-05-10T23:44:33.679Z,10.80
2023-05-10T23:47:01.681Z,10.73
2023-05-10T23:49:29.571Z,10.66
2023-05-10T23:51:57.489Z,10.57
2023-05-10T23:54:25.626Z,10.51
2023-05-10T23:56:53.602Z,10.46
2023-05-10T23:59:21.602Z,10.41
